Strona główna
METAR-TAF:

METAR-TAF

Lotnisko :

Port lotniczy Krajowa

Krajowa, Rumunia

Szerokość geograficzna: 44-14N, Długość geograficzna: 023-52E, wysokość: 192 m

Aktualna obserwacja pogody

Raport powstał 35 minut temu, godzina 17:30 UTC
Cisza
Temperatura 29°C
Wilgotność 33%
Ciśnienie 1018 hPa
Widzialność 10 km lub więcej

METAR: LRCV 211730Z AUTO 00000KT 9999 NCD 29/11 Q1018

czas: 21:05 (18:05 UTC)

Prognoza

Raport powstał 1 godzina i 5 minut temu, godzina 17:00 UTC
Prognoza ważna od 21 godzina 18 UTC do 22 godzina 03 UTC
Wiatr 6 kt od wschodnio-północny wschód
Widzialność 10 km lub więcej
Brak chmur poniżej 1500 m i brak chmur cumulonimbus

TAF: LRCV 211700Z 2118/2203 06006KT CAVOK

Obserwacja i prognoza pogody dla ponad 4000 lotnisk (raport METAR i TAF).

Dostępne stacje oznaczono żółtymi i czerwonymi punktami na mapie.

Najedź kursorem aby zobaczyć nazwę stacji.

Kliknij aby zobaczyć obserwacje i prognozy pogody.

Aby zmienić mapę: kliknij na zielony przycisk z czarnym krzyżykiem, aby powiększyć; na zielony przycisk z myślnikiem, aby pomniejszyć; na zielone strzałki, aby przejść do map sąsiednich.


METAR-TAF: